createdAt,value
2023-06-19T00:04:05.613Z,22.46
2023-06-19T00:09:08.023Z,22.32
2023-06-19T00:14:09.606Z,22.01
2023-06-19T00:19:11.808Z,22.15
2023-06-19T00:24:13.414Z,22.13
2023-06-19T00:29:14.988Z,22.08
2023-06-19T00:34:16.595Z,21.96
2023-06-19T00:39:18.251Z,21.72
2023-06-19T00:44:19.956Z,21.65
2023-06-19T00:49:21.844Z,21.70
2023-06-19T00:54:23.741Z,21.67
2023-06-19T00:59:25.247Z,21.58
2023-06-19T01:04:26.839Z,21.44
2023-06-19T01:09:38.082Z,21.42
2023-06-19T01:14:51.181Z,21.26
2023-06-19T01:19:52.609Z,21.20
2023-06-19T01:24:54.132Z,21.11
2023-06-19T01:29:55.975Z,20.95
2023-06-19T01:34:59.627Z,20.93
2023-06-19T01:40:05.568Z,20.87
2023-06-19T01:45:07.878Z,20.68
2023-06-19T01:50:10.484Z,20.78
2023-06-19T01:55:12.170Z,20.74
2023-06-19T02:00:13.921Z,20.61
2023-06-19T02:05:18.429Z,20.49
2023-06-19T02:10:20.009Z,20.12
2023-06-19T02:15:21.500Z,20.34
2023-06-19T02:20:25.641Z,20.06
2023-06-19T02:25:27.335Z,20.21
2023-06-19T02:30:28.843Z,20.20
2023-06-19T02:35:30.570Z,20.02
2023-06-19T02:40:32.101Z,19.94
2023-06-19T02:45:33.660Z,20.10
2023-06-19T02:50:35.437Z,20.04
2023-06-19T02:55:36.967Z,20.01
2023-06-19T03:00:39.015Z,20.00
2023-06-19T03:05:40.536Z,19.91
2023-06-19T03:10:42.043Z,19.82
2023-06-19T03:15:43.609Z,19.81
2023-06-19T03:20:45.493Z,19.75
2023-06-19T03:25:47.048Z,19.72
2023-06-19T03:30:48.746Z,19.84
2023-06-19T03:35:55.081Z,19.77
2023-06-19T03:41:15.360Z,19.79
2023-06-19T03:46:17.664Z,19.72
2023-06-19T03:51:19.227Z,19.78
2023-06-19T03:56:20.723Z,19.75
2023-06-19T04:01:22.249Z,19.74
2023-06-19T04:06:24.465Z,19.76
2023-06-19T04:11:25.952Z,19.71
2023-06-19T04:16:27.603Z,19.38
2023-06-19T04:21:29.355Z,19.64
2023-06-19T04:26:30.885Z,19.79
2023-06-19T04:31:32.477Z,18.91
2023-06-19T04:36:33.976Z,19.29
2023-06-19T04:41:39.380Z,19.04
2023-06-19T04:46:41.974Z,19.50
2023-06-19T04:51:43.488Z,19.26
2023-06-19T04:56:44.969Z,19.10
2023-06-19T05:01:46.516Z,19.05
2023-06-19T05:06:48.036Z,19.52
2023-06-19T05:11:49.551Z,19.36
2023-06-19T05:16:51.213Z,19.60
2023-06-19T05:21:52.776Z,19.75
2023-06-19T05:26:54.270Z,19.81
2023-06-19T05:31:55.782Z,19.88
2023-06-19T05:36:58.813Z,19.82
2023-06-19T05:42:00.297Z,19.91
2023-06-19T05:47:01.804Z,19.93
2023-06-19T05:52:03.863Z,19.94
2023-06-19T05:57:05.674Z,19.95
2023-06-19T06:02:07.292Z,19.97
2023-06-19T06:07:09.114Z,19.98
2023-06-19T06:12:10.607Z,19.83
2023-06-19T06:17:12.298Z,20.12
2023-06-19T06:22:13.784Z,20.25
2023-06-19T06:27:15.273Z,20.35
2023-06-19T06:32:16.997Z,20.38
2023-06-19T06:37:23.518Z,20.47
2023-06-19T06:42:24.999Z,20.45
2023-06-19T06:47:26.516Z,20.50
2023-06-19T06:52:29.056Z,20.57
2023-06-19T06:57:30.585Z,20.62
2023-06-19T07:02:32.214Z,20.69
2023-06-19T07:07:33.795Z,20.56
2023-06-19T07:12:35.304Z,20.83
2023-06-19T07:17:36.852Z,20.91
2023-06-19T07:22:38.916Z,21.08
2023-06-19T07:27:43.443Z,21.23
2023-06-19T07:32:45.052Z,21.26
2023-06-19T07:37:46.650Z,21.49
2023-06-19T07:42:48.158Z,21.42
2023-06-19T07:47:57.142Z,21.55
2023-06-19T07:52:59.056Z,21.64
2023-06-19T07:58:00.537Z,21.70
2023-06-19T08:03:02.412Z,21.71
2023-06-19T08:08:04.104Z,21.86
2023-06-19T08:13:05.596Z,21.95
2023-06-19T08:18:07.120Z,21.94
2023-06-19T08:23:08.623Z,21.92
2023-06-19T08:28:10.489Z,22.15
2023-06-19T08:33:12.046Z,22.18
2023-06-19T08:38:13.573Z,22.19
2023-06-19T08:43:15.095Z,22.23
2023-06-19T08:48:16.573Z,22.35
2023-06-19T08:53:18.081Z,22.32
2023-06-19T08:58:24.378Z,22.57
2023-06-19T09:03:26.262Z,22.65
2023-06-19T09:08:27.854Z,22.52
2023-06-19T09:13:33.122Z,22.66
2023-06-19T09:18:47.861Z,22.68
2023-06-19T09:23:53.057Z,22.71
2023-06-19T09:29:16.053Z,22.97
2023-06-19T09:34:19.358Z,22.98
2023-06-19T09:39:24.205Z,23.15
2023-06-19T09:44:27.721Z,23.23
2023-06-19T09:49:32.973Z,23.16
2023-06-19T09:54:35.945Z,23.48
2023-06-19T09:59:40.846Z,23.55
2023-06-19T10:04:46.898Z,23.55
2023-06-19T10:10:01.862Z,23.69
2023-06-19T10:15:19.624Z,23.75
2023-06-19T10:20:32.301Z,23.93
2023-06-19T10:25:36.147Z,24.15
2023-06-19T10:30:37.778Z,24.26
2023-06-19T10:35:41.151Z,24.29
2023-06-19T10:40:43.298Z,24.30
2023-06-19T10:45:45.301Z,24.37
2023-06-19T10:50:48.206Z,24.67
2023-06-19T10:55:49.703Z,25.05
2023-06-19T11:00:51.202Z,25.32
2023-06-19T11:05:52.734Z,25.47
2023-06-19T11:10:54.302Z,25.73
2023-06-19T11:15:55.929Z,26.13
2023-06-19T11:20:57.820Z,26.22
2023-06-19T11:26:06.585Z,26.33
2023-06-19T11:31:08.345Z,26.70
2023-06-19T11:36:09.926Z,26.88
2023-06-19T11:41:11.710Z,27.35
2023-06-19T11:46:17.099Z,27.67
2023-06-19T11:51:18.705Z,27.76
2023-06-19T11:56:20.201Z,28.38
2023-06-19T12:01:22.076Z,28.48
2023-06-19T12:06:23.880Z,28.40
2023-06-19T12:11:26.066Z,29.26
2023-06-19T12:16:29.505Z,28.30
2023-06-19T12:21:37.532Z,28.43
2023-06-19T12:26:41.166Z,28.73
2023-06-19T12:31:44.730Z,28.48
2023-06-19T12:36:46.221Z,28.83
2023-06-19T12:41:47.693Z,29.27
2023-06-19T12:46:49.324Z,29.25
2023-06-19T12:51:53.047Z,29.11
2023-06-19T12:56:54.826Z,29.43
2023-06-19T13:01:56.429Z,30.04
2023-06-19T13:06:57.954Z,29.52
2023-06-19T13:11:59.464Z,30.41
2023-06-19T13:17:01.196Z,30.64
2023-06-19T13:22:02.780Z,30.90
2023-06-19T13:27:04.596Z,30.40
2023-06-19T13:32:06.623Z,31.42
2023-06-19T13:37:08.149Z,30.89
2023-06-19T13:42:09.662Z,30.48
2023-06-19T13:47:36.682Z,31.49
2023-06-19T13:52:38.298Z,32.30
2023-06-19T13:57:41.307Z,32.07
2023-06-19T14:02:42.987Z,31.42
2023-06-19T14:07:44.701Z,32.49
2023-06-19T14:12:46.408Z,30.88
2023-06-19T14:17:48.125Z,30.85
2023-06-19T14:22:49.805Z,32.70
2023-06-19T14:27:51.378Z,32.95
2023-06-19T14:32:54.038Z,33.60
2023-06-19T14:37:55.691Z,33.84
2023-06-19T14:42:57.211Z,34.07
2023-06-19T14:47:58.800Z,34.19
2023-06-19T14:53:00.318Z,32.93
2023-06-19T15:03:18.457Z,33.30
2023-06-19T15:08:23.012Z,33.59
2023-06-19T15:13:24.548Z,33.72
2023-06-19T15:18:27.718Z,34.05
2023-06-19T15:23:29.380Z,33.36
2023-06-19T15:28:32.228Z,34.46
2023-06-19T15:33:33.695Z,34.51
2023-06-19T15:38:36.347Z,34.36
2023-06-19T15:43:38.766Z,34.54
2023-06-19T15:48:40.438Z,33.80
2023-06-19T15:53:42.072Z,34.16
2023-06-19T15:58:43.563Z,34.55
2023-06-19T16:03:45.149Z,33.91
2023-06-19T16:08:46.783Z,33.70
2023-06-19T16:13:48.291Z,32.76
2023-06-19T16:18:49.783Z,32.05
2023-06-19T16:23:51.471Z,32.66
2023-06-19T16:28:53.012Z,32.85
2023-06-19T16:33:54.491Z,33.40
2023-06-19T16:38:56.000Z,32.11
2023-06-19T16:43:57.490Z,31.22
2023-06-19T16:49:24.038Z,32.34
2023-06-19T16:54:25.628Z,33.07
2023-06-19T16:59:27.176Z,33.40
2023-06-19T17:04:28.655Z,33.12
2023-06-19T17:09:30.138Z,33.68
2023-06-19T17:14:31.688Z,34.01
2023-06-19T17:19:33.184Z,34.05
2023-06-19T17:24:34.885Z,33.91
2023-06-19T17:29:36.453Z,33.33
2023-06-19T17:34:37.957Z,33.38
2023-06-19T17:39:41.312Z,33.57
2023-06-19T17:44:42.814Z,33.60
2023-06-19T17:49:44.415Z,33.32
2023-06-19T17:54:50.088Z,33.33
2023-06-19T17:59:51.592Z,33.24
2023-06-19T18:04:53.077Z,33.10
2023-06-19T18:09:56.361Z,33.05
2023-06-19T18:14:57.861Z,32.82
2023-06-19T18:19:59.401Z,32.68
2023-06-19T18:25:00.910Z,32.55
2023-06-19T18:30:04.237Z,32.44
2023-06-19T18:35:06.712Z,32.27
2023-06-19T18:40:08.827Z,32.12
2023-06-19T18:45:10.531Z,32.00
2023-06-19T18:50:13.945Z,31.82
2023-06-19T18:55:15.441Z,31.64
2023-06-19T19:00:18.122Z,31.54
2023-06-19T19:05:19.613Z,31.34
2023-06-19T19:10:21.156Z,31.14
2023-06-19T19:15:22.687Z,30.99
2023-06-19T19:20:24.494Z,30.77
2023-06-19T19:25:26.349Z,30.49
2023-06-19T19:30:28.351Z,30.28
2023-06-19T19:35:30.089Z,29.90
2023-06-19T19:40:31.609Z,29.88
2023-06-19T19:45:33.173Z,29.72
2023-06-19T19:50:34.654Z,29.61
2023-06-19T19:55:36.133Z,29.37
2023-06-19T20:00:37.695Z,29.15
2023-06-19T20:05:39.309Z,29.08
2023-06-19T20:10:40.903Z,28.91
2023-06-19T20:15:42.454Z,28.78
2023-06-19T20:20:44.483Z,28.71
2023-06-19T20:25:46.403Z,28.57
2023-06-19T20:30:48.014Z,28.43
2023-06-19T20:35:50.848Z,28.22
2023-06-19T20:40:52.429Z,28.08
2023-06-19T20:45:55.243Z,28.00
2023-06-19T20:50:58.363Z,27.89
2023-06-19T20:55:59.921Z,27.78
2023-06-19T21:01:01.602Z,27.68
2023-06-19T21:06:03.890Z,27.35
2023-06-19T21:11:05.822Z,27.00
2023-06-19T21:16:07.383Z,27.23
2023-06-19T21:21:08.870Z,27.14
2023-06-19T21:26:10.371Z,27.02
2023-06-19T21:31:13.868Z,26.94
2023-06-19T21:36:15.397Z,26.78
2023-06-19T21:41:16.911Z,26.71
2023-06-19T21:46:18.524Z,26.55
2023-06-19T21:51:20.084Z,26.51
2023-06-19T21:56:21.592Z,26.39
2023-06-19T22:01:23.088Z,26.24
2023-06-19T22:06:24.649Z,26.16
2023-06-19T22:11:30.105Z,26.04
2023-06-19T22:16:32.678Z,25.96
2023-06-19T22:21:34.402Z,24.41
2023-06-19T22:26:38.189Z,24.92
2023-06-19T22:31:40.173Z,25.41
2023-06-19T22:36:41.807Z,25.42
2023-06-19T22:41:43.999Z,25.35
2023-06-19T22:46:45.553Z,25.28
2023-06-19T22:51:47.626Z,25.18
2023-06-19T22:56:49.128Z,25.06
2023-06-19T23:01:50.638Z,24.99
2023-06-19T23:06:53.102Z,24.91
2023-06-19T23:11:55.594Z,24.78
2023-06-19T23:16:57.390Z,24.71
2023-06-19T23:21:58.958Z,24.64
